Time;durP1;ratioP1;P1;durP2;ratioP2;P2;SDS_P1;SDS_P2;PMS_P1;PMS_P2;Temp;Humidity;BMP_temperature;BMP_pressure;BME280_temperature;BME280_humidity;BME280_pressure;Samples;Min_cycle;Max_cycle;Signal;HPM_P1;HPM_P2
2022/07/24 00:01:44;;;;;;;1.75;1.65;;;;;;;19.51;57.56;99295.47;5069255;28;20107;-78
2022/07/24 00:04:09;;;;;;;2.92;1.83;;;;;;;19.59;57.20;99299.41;5064521;28;20025;-77
2022/07/24 00:06:35;;;;;;;2.08;1.88;;;;;;;19.52;57.35;99290.88;5064724;28;20844;-77
2022/07/24 00:09:00;;;;;;;2.60;2.03;;;;;;;19.51;57.65;99309.00;5057464;28;20025;-78
2022/07/24 00:11:26;;;;;;;1.98;1.83;;;;;;;19.43;57.71;99302.38;5048905;28;20029;-78
2022/07/24 00:13:52;;;;;;;4.05;1.88;;;;;;;19.38;57.82;99293.50;5066128;28;20029;-78
2022/07/24 00:16:17;;;;;;;1.83;1.70;;;;;;;19.34;57.75;99277.06;5053625;28;20044;-79
2022/07/24 00:18:43;;;;;;;2.53;2.10;;;;;;;19.24;58.01;99276.41;5052202;28;20139;-77
2022/07/24 00:21:08;;;;;;;2.53;1.90;;;;;;;19.31;57.80;99293.03;5072539;28;20028;-78
2022/07/24 00:23:34;;;;;;;2.20;2.10;;;;;;;19.46;58.00;99308.28;5057819;28;20500;-78
2022/07/24 00:26:00;;;;;;;5.07;2.13;;;;;;;19.31;57.84;99288.44;5053465;28;20029;-78
2022/07/24 00:28:25;;;;;;;4.00;2.25;;;;;;;19.20;58.17;99302.41;5052126;28;20037;-78
2022/07/24 00:30:51;;;;;;;2.28;2.08;;;;;;;19.16;58.52;99296.78;5052345;28;20397;-77
2022/07/24 00:33:17;;;;;;;2.47;2.20;;;;;;;19.31;57.73;99301.16;5068761;28;20045;-78
2022/07/24 00:35:43;;;;;;;2.38;2.10;;;;;;;18.75;60.34;99300.34;5057698;28;20103;-77
2022/07/24 00:38:09;;;;;;;2.90;1.77;;;;;;;18.07;62.27;99310.56;5071448;28;20048;-77
2022/07/24 00:40:35;;;;;;;2.63;2.00;;;;;;;18.32;59.87;99270.59;5072326;28;20051;-78
2022/07/24 00:43:01;;;;;;;2.20;1.98;;;;;;;19.02;58.90;99295.94;5073126;28;20484;-78
2022/07/24 00:45:27;;;;;;;2.35;1.77;;;;;;;19.04;58.22;99293.72;5073309;28;20044;-77
2022/07/24 00:47:52;;;;;;;2.08;1.98;;;;;;;18.96;58.90;99291.66;5072999;28;20029;-78
2022/07/24 00:50:18;;;;;;;2.00;1.90;;;;;;;19.11;58.12;99296.06;5071939;28;20036;-77
2022/07/24 00:52:47;;;;;;;4.15;2.13;;;;;;;18.92;58.52;99287.94;5070619;28;20050;-78
2022/07/24 00:55:12;;;;;;;2.35;2.15;;;;;;;18.92;58.51;99279.81;5071982;28;20039;-77
2022/07/24 00:57:38;;;;;;;4.40;2.90;;;;;;;18.05;61.70;99286.53;5071689;28;20118;-78
2022/07/24 01:00:06;;;;;;;2.45;2.20;;;;;;;17.25;64.10;99282.66;5088688;28;20070;-78
2022/07/24 01:02:32;;;;;;;2.83;2.63;;;;;;;16.92;65.77;99295.00;5071587;28;20071;-78
2022/07/24 01:04:58;;;;;;;3.15;2.72;;;;;;;16.63;66.88;99302.16;5071719;28;20032;-77
2022/07/24 01:07:23;;;;;;;4.40;2.67;;;;;;;16.62;66.56;99297.03;5088146;28;20061;-77
2022/07/24 01:09:50;;;;;;;4.65;2.95;;;;;;;16.38;67.95;99294.16;5070480;28;20058;-78
2022/07/24 01:12:16;;;;;;;3.28;2.97;;;;;;;16.02;68.31;99277.28;5074760;28;20476;-77
2022/07/24 01:14:42;;;;;;;2.47;2.28;;;;;;;16.10;67.21;99284.78;5051545;28;20037;-77
2022/07/24 01:17:08;;;;;;;2.17;1.98;;;;;;;16.88;64.83;99285.84;5052519;28;20397;-78
2022/07/24 01:19:33;;;;;;;6.85;2.50;;;;;;;17.19;64.23;99291.84;5051472;28;20029;-77
2022/07/24 01:21:59;;;;;;;2.13;1.88;;;;;;;17.38;63.33;99290.09;5034804;28;20036;-77
2022/07/24 01:24:26;;;;;;;3.30;2.00;;;;;;;17.83;61.74;99303.25;5068043;28;20116;-78
2022/07/24 01:26:52;;;;;;;3.42;2.83;;;;;;;16.91;65.47;99279.88;5068784;28;20028;-77
2022/07/24 01:29:17;;;;;;;2.42;2.22;;;;;;;16.53;65.54;99274.44;5051270;28;20392;-77
2022/07/24 01:31:43;;;;;;;2.42;2.20;;;;;;;17.69;62.08;99288.78;5043837;28;20028;-78
2022/07/24 01:34:08;;;;;;;3.00;2.60;;;;;;;17.53;63.59;99297.28;5062655;28;20063;-79
2022/07/24 01:36:33;;;;;;;3.90;2.28;;;;;;;17.10;64.12;99290.84;5072043;28;20709;-77
2022/07/24 01:39:07;;;;;;;2.63;2.25;;;;;;;17.96;60.78;99278.25;5071044;28;20025;-78
2022/07/24 01:41:33;;;;;;;2.22;2.08;;;;;;;18.21;59.83;99268.28;5069866;28;20028;-78
2022/07/24 01:43:58;;;;;;;2.58;2.35;;;;;;;17.72;62.14;99287.41;5067946;28;20044;-78
2022/07/24 01:46:24;;;;;;;2.35;1.65;;;;;;;17.92;60.89;99288.03;5050690;28;20024;-77
2022/07/24 01:48:49;;;;;;;2.17;1.95;;;;;;;17.95;60.77;99273.16;5051956;28;20040;-78
2022/07/24 01:51:15;;;;;;;2.60;2.40;;;;;;;17.77;60.97;99281.97;5051947;28;20031;-78
2022/07/24 01:53:40;;;;;;;2.17;1.98;;;;;;;18.04;60.45;99279.56;5034340;28;20482;-78
2022/07/24 01:56:06;;;;;;;2.03;1.83;;;;;;;18.15;59.98;99275.63;5050634;28;20509;-78
2022/07/24 01:58:31;;;;;;;3.90;2.25;;;;;;;18.25;60.19;99275.53;5059503;28;20404;-78
2022/07/24 02:00:57;;;;;;;2.45;2.10;;;;;;;18.29;59.91;99281.16;5078775;28;20408;-78
2022/07/24 02:03:22;;;;;;;2.90;2.50;;;;;;;18.05;59.95;99281.16;5070562;28;20043;-78
2022/07/24 02:05:47;;;;;;;2.55;1.90;;;;;;;18.27;59.76;99280.63;5054014;28;20039;-77
2022/07/24 02:08:13;;;;;;;1.98;1.70;;;;;;;18.18;59.52;99272.34;5052613;28;20021;-77
2022/07/24 02:10:39;;;;;;;2.72;2.10;;;;;;;18.28;59.35;99272.22;5071618;28;20058;-77
2022/07/24 02:13:05;;;;;;;2.60;2.13;;;;;;;18.16;60.10;99303.44;5071392;28;20016;-77
2022/07/24 02:15:30;;;;;;;4.57;2.47;;;;;;;17.69;61.46;99291.47;5070773;28;20043;-78
2022/07/24 02:17:59;;;;;;;2.58;2.38;;;;;;;17.72;60.67;99296.31;5062814;28;20040;-77
2022/07/24 02:20:28;;;;;;;2.60;1.98;;;;;;;17.08;62.98;99279.53;5087046;28;20025;-77
2022/07/24 02:22:54;;;;;;;2.05;1.95;;;;;;;16.94;63.89;99306.31;5071279;28;20028;-78
2022/07/24 02:25:20;;;;;;;4.20;2.58;;;;;;;16.53;64.79;99296.81;5070241;28;20047;-77
2022/07/24 02:27:46;;;;;;;2.20;1.90;;;;;;;16.90;62.75;99280.19;5069987;28;20399;-77
2022/07/24 02:30:15;;;;;;;2.83;2.13;;;;;;;17.14;62.71;99297.28;5070042;28;20032;-77
2022/07/24 02:32:41;;;;;;;1.92;1.83;;;;;;;17.37;61.74;99288.47;5067563;28;20033;-77
2022/07/24 02:35:07;;;;;;;2.67;1.95;;;;;;;17.29;62.05;99294.47;5068788;28;20093;-77
2022/07/24 02:37:38;;;;;;;3.95;2.25;;;;;;;17.65;60.93;99284.22;5068765;28;20492;-77
2022/07/24 02:40:05;;;;;;;2.38;2.17;;;;;;;17.96;60.00;99299.06;5066536;28;20016;-78
2022/07/24 02:42:30;;;;;;;4.72;2.28;;;;;;;17.91;60.37;99286.41;5051022;28;20029;-77
2022/07/24 02:44:56;;;;;;;2.90;2.10;;;;;;;17.82;60.35;99287.34;5051000;28;20035;-78
2022/07/24 02:47:21;;;;;;;2.42;2.10;;;;;;;17.80;60.28;99286.81;5046873;28;20513;-77
2022/07/24 02:49:46;;;;;;;2.05;1.90;;;;;;;17.95;60.48;99309.06;5053263;28;20115;-78
2022/07/24 02:52:12;;;;;;;2.42;1.90;;;;;;;17.87;60.12;99284.56;5069532;28;20365;-77
2022/07/24 02:54:37;;;;;;;3.63;1.90;;;;;;;17.73;59.84;99280.94;5053188;28;20048;-78
2022/07/24 02:57:03;;;;;;;2.30;2.10;;;;;;;17.24;61.78;99308.81;5070435;28;20033;-77
2022/07/24 02:59:28;;;;;;;2.80;2.60;;;;;;;16.74;63.54;99292.13;5086551;28;20115;-77
2022/07/24 03:01:54;;;;;;;2.63;2.42;;;;;;;17.14;61.90;99302.69;5035136;28;20048;-78
2022/07/24 03:04:19;;;;;;;2.42;2.33;;;;;;;17.57;61.07;99292.94;5065639;28;20496;-78
2022/07/24 03:06:44;;;;;;;4.05;2.35;;;;;;;17.72;60.45;99307.13;5049616;28;20040;-77
2022/07/24 03:09:10;;;;;;;3.35;2.08;;;;;;;17.28;61.19;99273.97;5066020;28;20033;-77
2022/07/24 03:11:35;;;;;;;2.70;2.50;;;;;;;17.59;60.99;99299.66;5066475;28;20025;-78
2022/07/24 03:14:01;;;;;;;5.13;2.38;;;;;;;17.54;60.80;99286.22;5049829;28;20036;-77
2022/07/24 03:16:26;;;;;;;2.28;2.13;;;;;;;17.51;60.75;99297.59;5032742;28;20037;-77
2022/07/24 03:18:51;;;;;;;2.40;2.20;;;;;;;16.86;62.30;99279.91;5051517;28;20491;-77
2022/07/24 03:21:18;;;;;;;2.20;1.98;;;;;;;16.66;63.41;99295.41;5061096;28;20028;-78
2022/07/24 03:23:43;;;;;;;4.43;2.40;;;;;;;16.67;62.98;99278.13;5070827;28;20083;-78
2022/07/24 03:26:09;;;;;;;2.97;1.92;;;;;;;17.43;61.66;99300.84;5069479;28;20028;-77
2022/07/24 03:28:35;;;;;;;1.98;1.80;;;;;;;17.64;60.72;99298.81;5069022;28;20050;-77
2022/07/24 03:31:00;;;;;;;2.22;2.00;;;;;;;17.39;61.35;99298.97;5069466;28;20024;-78
2022/07/24 03:33:26;;;;;;;2.67;2.47;;;;;;;16.26;64.98;99291.75;5070586;28;20035;-78
2022/07/24 03:35:52;;;;;;;4.50;2.20;;;;;;;16.12;64.96;99306.06;5066476;28;20507;-77
2022/07/24 03:38:17;;;;;;;3.80;2.20;;;;;;;16.13;65.10;99300.41;5063653;28;20029;-77
2022/07/24 03:40:42;;;;;;;2.47;2.05;;;;;;;16.02;64.68;99306.91;5070749;28;20025;-77
2022/07/24 03:43:08;;;;;;;2.20;2.00;;;;;;;16.65;62.80;99294.59;5069271;28;20028;-78
2022/07/24 03:45:33;;;;;;;2.40;2.22;;;;;;;16.97;61.88;99288.78;5070540;28;20024;-77
2022/07/24 03:47:59;;;;;;;2.33;2.05;;;;;;;17.14;61.43;99308.91;5053059;28;20055;-77
2022/07/24 03:50:24;;;;;;;3.65;2.22;;;;;;;17.19;61.87;99322.31;5074186;28;20494;-78
2022/07/24 03:52:50;;;;;;;3.20;2.10;;;;;;;17.27;61.47;99299.34;5070406;28;20488;-78
2022/07/24 03:55:15;;;;;;;2.30;2.10;;;;;;;16.40;64.17;99300.84;5083045;28;20024;-78
2022/07/24 03:57:41;;;;;;;2.35;2.15;;;;;;;15.98;65.81;99303.13;5072364;28;20358;-77
2022/07/24 04:00:08;;;;;;;3.85;2.65;;;;;;;16.11;65.45;99321.41;5073005;28;20051;-77
2022/07/24 04:02:33;;;;;;;4.88;2.63;;;;;;;15.48;67.90;99317.44;5072700;28;20386;-77
2022/07/24 04:04:59;;;;;;;2.72;2.45;;;;;;;15.40;67.64;99309.03;5055961;28;20029;-77
2022/07/24 04:07:24;;;;;;;2.83;2.55;;;;;;;15.35;68.32;99315.25;5072633;28;20040;-78
2022/07/24 04:09:50;;;;;;;3.05;2.53;;;;;;;15.28;69.00;99309.31;5072350;28;20037;-77
2022/07/24 04:12:15;;;;;;;6.32;2.28;;;;;;;15.51;67.36;99302.63;5072741;28;20024;-77
2022/07/24 04:14:40;;;;;;;4.00;2.58;;;;;;;16.01;65.83;99307.19;5072663;28;20056;-77
2022/07/24 04:17:06;;;;;;;2.78;2.28;;;;;;;15.45;69.33;99301.00;5089016;28;20120;-78
2022/07/24 04:19:31;;;;;;;2.70;2.50;;;;;;;15.28;70.37;99316.56;5055802;28;20058;-78
2022/07/24 04:21:57;;;;;;;3.45;2.42;;;;;;;15.27;69.83;99310.38;5055808;28;20040;-77
2022/07/24 04:24:23;;;;;;;2.30;2.10;;;;;;;15.37;69.47;99309.59;5071510;28;20059;-78
2022/07/24 04:26:48;;;;;;;3.85;3.10;;;;;;;15.44;71.31;99294.03;5072019;28;20025;-77
2022/07/24 04:29:14;;;;;;;3.08;2.67;;;;;;;15.38;71.80;99292.38;5072120;28;20082;-77
2022/07/24 04:31:39;;;;;;;2.35;2.15;;;;;;;15.51;70.78;99306.13;5072187;28;20035;-77
2022/07/24 04:34:04;;;;;;;2.65;2.45;;;;;;;15.76;68.98;99299.94;5055505;28;20033;-78
2022/07/24 04:36:30;;;;;;;1.98;1.88;;;;;;;16.19;67.15;99302.00;5071793;28;20028;-77
2022/07/24 04:38:55;;;;;;;4.80;2.97;;;;;;;16.16;70.37;99318.69;5055499;28;20495;-78
2022/07/24 04:41:21;;;;;;;7.75;3.03;;;;;;;15.94;71.19;99283.22;5071262;28;20058;-78
2022/07/24 04:43:46;;;;;;;4.43;3.00;;;;;;;16.28;70.84;99318.41;5072010;28;20059;-77
2022/07/24 04:46:12;;;;;;;3.67;3.33;;;;;;;16.11;71.91;99307.16;5072433;28;20060;-77
2022/07/24 04:48:37;;;;;;;3.25;2.95;;;;;;;16.12;72.04;99304.16;5054857;28;20028;-78
2022/07/24 04:51:03;;;;;;;3.35;2.90;;;;;;;16.17;72.78;99298.78;5055663;28;20433;-77
2022/07/24 04:53:30;;;;;;;2.92;2.53;;;;;;;16.28;72.33;99315.72;5072073;28;20036;-77
2022/07/24 04:55:56;;;;;;;5.18;2.97;;;;;;;16.16;72.36;99302.53;5071882;28;20040;-77
2022/07/24 04:58:22;;;;;;;2.72;2.53;;;;;;;16.40;71.58;99319.72;5065314;28;20024;-78
2022/07/24 05:00:47;;;;;;;9.60;3.55;;;;;;;16.48;71.84;99311.06;5068685;28;20495;-77
2022/07/24 05:03:13;;;;;;;3.50;3.20;;;;;;;16.33;72.21;99303.06;5071601;28;20472;-77
2022/07/24 05:05:38;;;;;;;4.03;3.22;;;;;;;16.13;72.50;99292.34;5071800;28;20036;-77
2022/07/24 05:08:04;;;;;;;2.50;2.30;;;;;;;16.47;71.32;99308.63;5072504;28;20107;-77
2022/07/24 05:10:29;;;;;;;3.15;2.15;;;;;;;16.87;69.54;99313.91;5054824;28;20043;-77
2022/07/24 05:12:54;;;;;;;3.20;2.90;;;;;;;16.99;69.78;99298.16;5072643;28;20392;-77
2022/07/24 05:15:20;;;;;;;3.30;2.08;;;;;;;17.96;64.39;99317.97;5065124;28;20024;-77
2022/07/24 05:17:47;;;;;;;3.42;2.20;;;;;;;18.61;62.24;99313.75;5085263;28;20435;-77
2022/07/24 05:20:13;;;;;;;2.45;2.25;;;;;;;18.27;64.50;99327.38;5071289;28;20031;-77
2022/07/24 05:22:38;;;;;;;2.85;2.60;;;;;;;18.03;65.53;99306.81;5072477;28;20476;-77
2022/07/24 05:25:04;;;;;;;3.35;2.75;;;;;;;18.33;64.62;99306.50;5072452;28;20028;-78
2022/07/24 05:27:29;;;;;;;2.70;2.50;;;;;;;18.38;63.83;99307.25;5072358;28;20173;-77
2022/07/24 05:29:55;;;;;;;3.95;3.60;;;;;;;18.25;66.87;99313.34;5053013;28;20036;-77
2022/07/24 05:32:20;;;;;;;2.60;2.38;;;;;;;18.74;62.08;99310.34;5064917;28;20025;-78
2022/07/24 05:34:45;;;;;;;3.33;2.28;;;;;;;18.87;62.39;99315.06;5052306;28;20036;-78
2022/07/24 05:37:11;;;;;;;2.30;2.20;;;;;;;18.98;61.51;99304.91;5065494;28;20032;-77
2022/07/24 05:39:36;;;;;;;3.83;2.85;;;;;;;18.97;63.09;99314.94;5050752;28;20032;-77
2022/07/24 05:42:03;;;;;;;2.40;2.20;;;;;;;18.46;63.31;99293.13;5053958;28;20497;-78
2022/07/24 05:44:28;;;;;;;2.70;2.47;;;;;;;19.11;62.74;99299.56;5072208;28;20166;-77
2022/07/24 05:46:54;;;;;;;4.47;2.80;;;;;;;19.22;61.82;99303.72;5069044;28;20163;-78
2022/07/24 05:49:19;;;;;;;3.05;2.38;;;;;;;19.52;60.21;99316.03;5070464;28;20423;-78
2022/07/24 05:51:45;;;;;;;4.90;3.55;;;;;;;18.89;64.13;99301.25;5071979;28;20455;-77
2022/07/24 05:54:10;;;;;;;2.88;2.67;;;;;;;19.28;60.83;99299.88;5070704;28;20034;-77
2022/07/24 05:56:35;;;;;;;3.92;2.63;;;;;;;18.74;64.29;99304.94;5070323;28;20036;-77
2022/07/24 05:59:01;;;;;;;3.38;2.40;;;;;;;19.04;62.35;99307.25;5071282;28;20507;-77
2022/07/24 06:01:27;;;;;;;2.65;2.00;;;;;;;19.61;59.95;99286.38;5071889;28;20032;-78
2022/07/24 06:03:52;;;;;;;3.25;2.95;;;;;;;19.80;59.52;99293.34;5068485;28;20040;-77
2022/07/24 06:06:17;;;;;;;3.70;3.40;;;;;;;19.47;63.43;99296.34;5063238;28;20024;-77
2022/07/24 06:08:43;;;;;;;6.05;3.35;;;;;;;18.18;67.02;99271.53;5069748;28;20043;-77
2022/07/24 06:11:08;;;;;;;2.50;2.30;;;;;;;18.38;64.77;99282.94;5071169;28;20431;-78
2022/07/24 06:13:34;;;;;;;3.42;2.75;;;;;;;18.28;67.02;99288.44;5053550;28;20546;-77
2022/07/24 06:15:59;;;;;;;6.80;4.15;;;;;;;18.34;67.32;99291.91;5070333;28;20112;-77
2022/07/24 06:18:24;;;;;;;3.95;3.28;;;;;;;17.88;69.14;99308.59;5052313;28;20028;-77
2022/07/24 06:20:50;;;;;;;3.67;2.90;;;;;;;17.87;68.70;99301.56;5068767;28;20028;-77
2022/07/24 06:23:15;;;;;;;3.88;2.58;;;;;;;17.91;67.79;99291.81;5050318;28;20021;-77
2022/07/24 06:25:41;;;;;;;3.67;2.63;;;;;;;18.04;67.52;99295.75;5069327;28;20556;-77
2022/07/24 06:28:06;;;;;;;5.68;3.33;;;;;;;18.01;68.66;99298.19;5069516;28;20025;-78
2022/07/24 06:30:31;;;;;;;4.00;2.90;;;;;;;18.00;68.52;99278.50;5086779;28;20056;-77
2022/07/24 06:32:58;;;;;;;4.13;3.13;;;;;;;18.66;67.36;99286.66;5069888;28;20036;-77
2022/07/24 06:35:27;;;;;;;5.40;2.53;;;;;;;19.26;62.63;99274.19;5069107;28;20056;-78
2022/07/24 06:37:55;;;;;;;3.22;2.92;;;;;;;18.85;67.00;99289.41;5067116;28;20025;-77
2022/07/24 06:40:21;;;;;;;3.60;2.67;;;;;;;18.76;65.78;99291.97;5071022;28;20020;-77
2022/07/24 06:42:48;;;;;;;3.72;2.88;;;;;;;19.11;65.75;99272.50;5069825;28;20131;-77
2022/07/24 06:45:14;;;;;;;4.38;3.30;;;;;;;18.33;68.04;99283.00;5071037;28;20028;-77
2022/07/24 06:47:41;;;;;;;3.92;3.08;;;;;;;19.01;65.17;99277.25;5070006;28;20035;-77
2022/07/24 06:50:07;;;;;;;2.70;2.50;;;;;;;18.64;66.73;99272.63;5070506;28;20372;-77
2022/07/24 06:52:32;;;;;;;4.18;3.20;;;;;;;18.61;66.55;99271.31;5068879;28;20432;-77
2022/07/24 06:54:58;;;;;;;8.57;3.33;;;;;;;18.96;65.82;99261.13;5050326;28;20027;-77
2022/07/24 06:57:25;;;;;;;3.65;2.63;;;;;;;18.80;65.65;99276.75;5050835;28;20040;-77
2022/07/24 06:59:54;;;;;;;3.65;2.90;;;;;;;19.00;66.67;99279.16;5050686;28;20017;-77
2022/07/24 07:02:20;;;;;;;2.45;2.00;;;;;;;19.17;64.15;99287.59;5050935;28;20036;-77
2022/07/24 07:04:46;;;;;;;5.80;2.85;;;;;;;19.62;63.77;99280.66;5055090;28;20024;-78
2022/07/24 07:07:12;;;;;;;5.28;3.17;;;;;;;19.39;64.42;99284.31;5052775;28;20020;-77
2022/07/24 07:09:38;;;;;;;4.53;3.30;;;;;;;19.18;66.48;99289.19;5052185;28;20495;-77
2022/07/24 07:12:04;;;;;;;7.28;2.90;;;;;;;19.67;64.92;99280.59;5069474;28;20029;-77
2022/07/24 07:14:30;;;;;;;2.20;2.00;;;;;;;20.01;61.75;99282.94;5069456;28;20036;-77
2022/07/24 07:16:55;;;;;;;2.45;2.25;;;;;;;20.44;60.73;99283.53;5069357;28;20118;-78
2022/07/24 07:19:20;;;;;;;3.47;2.90;;;;;;;20.26;63.42;99268.97;5069428;28;20025;-77
2022/07/24 07:21:46;;;;;;;3.60;2.05;;;;;;;20.82;59.33;99282.97;5047707;28;20060;-77
2022/07/24 07:24:11;;;;;;;2.30;2.00;;;;;;;20.95;58.97;99261.53;5039982;28;20028;-78
2022/07/24 07:26:37;;;;;;;3.67;2.28;;;;;;;20.79;60.11;99280.84;5074715;28;20503;-78
2022/07/24 07:29:02;;;;;;;2.88;2.13;;;;;;;20.85;60.81;99273.41;5073072;28;20029;-78
2022/07/24 07:31:27;;;;;;;2.45;2.22;;;;;;;20.96;59.68;99274.00;5073495;28;20027;-77
2022/07/24 07:33:53;;;;;;;2.53;2.33;;;;;;;21.11;60.76;99270.97;5074747;28;20033;-77
2022/07/24 07:36:19;;;;;;;3.58;2.17;;;;;;;21.44;58.12;99278.56;5074459;28;20426;-78
2022/07/24 07:38:45;;;;;;;6.20;2.42;;;;;;;21.40;59.40;99274.06;5071764;28;20025;-77
2022/07/24 07:41:14;;;;;;;3.20;2.10;;;;;;;21.39;58.78;99278.69;5060366;28;20400;-78
2022/07/24 07:43:40;;;;;;;4.57;2.70;;;;;;;21.36;62.10;99267.66;5053177;28;20074;-78
2022/07/24 07:46:07;;;;;;;2.78;2.28;;;;;;;20.84;61.42;99269.09;5036686;28;20025;-78
2022/07/24 07:48:32;;;;;;;3.85;2.90;;;;;;;21.42;59.63;99280.00;5052675;28;20029;-77
2022/07/24 07:50:58;;;;;;;3.63;3.15;;;;;;;21.26;61.92;99265.16;5069660;28;20025;-78
2022/07/24 07:53:23;;;;;;;3.00;2.70;;;;;;;21.00;61.54;99251.34;5069308;28;20020;-78
2022/07/24 07:55:51;;;;;;;9.18;2.63;;;;;;;21.50;60.23;99268.38;5064556;28;20032;-77
2022/07/24 07:58:17;;;;;;;4.55;2.95;;;;;;;21.09;62.45;99263.13;5069205;28;20036;-77
2022/07/24 08:00:43;;;;;;;5.32;3.05;;;;;;;20.83;62.19;99260.16;5074852;28;20556;-77
2022/07/24 08:03:09;;;;;;;2.85;2.63;;;;;;;21.60;59.37;99257.28;5052640;28;20029;-78
2022/07/24 08:05:34;;;;;;;3.28;2.85;;;;;;;21.56;60.42;99267.13;5085434;28;20362;-77
2022/07/24 08:08:00;;;;;;;3.63;2.53;;;;;;;21.71;59.77;99263.25;5072091;28;20032;-78
2022/07/24 08:10:25;;;;;;;4.85;2.92;;;;;;;21.55;60.83;99255.50;5072550;28;20103;-77
2022/07/24 08:12:51;;;;;;;3.80;3.53;;;;;;;21.66;60.38;99266.91;5074047;28;20115;-77
2022/07/24 08:15:17;;;;;;;6.10;2.88;;;;;;;22.14;59.54;99248.78;5072880;28;20048;-78
2022/07/24 08:17:42;;;;;;;7.95;3.50;;;;;;;21.52;59.88;99255.28;5055452;28;20066;-78
2022/07/24 08:20:08;;;;;;;2.85;2.50;;;;;;;22.25;57.82;99261.00;5073763;28;20078;-78
2022/07/24 08:22:34;;;;;;;6.78;3.78;;;;;;;22.15;58.50;99263.97;5055727;28;20532;-78
2022/07/24 08:24:59;;;;;;;4.13;2.70;;;;;;;22.27;57.68;99253.31;5073272;28;20115;-78
2022/07/24 08:27:24;;;;;;;3.72;2.35;;;;;;;22.42;57.57;99252.06;5055062;28;20028;-78
2022/07/24 08:29:50;;;;;;;5.68;3.08;;;;;;;22.67;56.07;99256.00;5055589;28;20024;-78
2022/07/24 08:32:15;;;;;;;3.60;3.17;;;;;;;22.43;57.34;99259.13;5073515;28;20035;-78
2022/07/24 08:34:41;;;;;;;5.47;3.28;;;;;;;22.66;58.27;99241.59;5071277;28;20036;-78
2022/07/24 08:37:06;;;;;;;3.00;2.80;;;;;;;22.86;56.60;99246.44;5055258;28;20519;-78
2022/07/24 08:39:32;;;;;;;2.78;2.60;;;;;;;22.83;56.40;99257.13;5054693;28;20028;-78
2022/07/24 08:41:57;;;;;;;4.53;2.90;;;;;;;22.46;56.69;99249.50;5071660;28;20037;-78
2022/07/24 08:44:22;;;;;;;6.80;3.05;;;;;;;22.52;57.28;99246.31;5071850;28;20422;-78
2022/07/24 08:46:50;;;;;;;5.70;2.97;;;;;;;22.68;56.74;99230.38;5069127;28;20405;-78
2022/07/24 08:49:15;;;;;;;7.45;3.03;;;;;;;22.52;56.26;99235.44;5073020;28;20424;-78
2022/07/24 08:51:44;;;;;;;3.50;2.60;;;;;;;23.22;55.71;99235.19;5071884;28;20127;-78
2022/07/24 08:54:10;;;;;;;3.92;3.00;;;;;;;23.40;54.90;99216.94;5055382;28;20480;-78
2022/07/24 08:56:40;;;;;;;5.35;3.53;;;;;;;23.41;54.82;99243.88;5071417;28;20028;-78
2022/07/24 08:59:15;;;;;;;3.60;3.00;;;;;;;22.86;55.69;99229.28;5066161;28;20067;-78
2022/07/24 09:01:40;;;;;;;2.92;2.65;;;;;;;23.09;55.50;99219.81;5052819;28;20484;-78
2022/07/24 09:04:05;;;;;;;3.38;3.08;;;;;;;23.80;54.47;99226.47;5054774;28;20029;-78
2022/07/24 09:06:31;;;;;;;4.05;3.72;;;;;;;23.60;53.45;99221.72;5054806;28;20431;-78
2022/07/24 09:09:02;;;;;;;4.50;2.80;;;;;;;23.92;53.71;99217.63;5052284;28;20036;-78
2022/07/24 09:11:29;;;;;;;3.58;2.65;;;;;;;24.03;52.73;99213.38;5051269;28;20024;-78
2022/07/24 09:16:45;;;;;;;4.65;3.78;;;;;;;24.27;51.79;99233.53;5055283;28;20119;-78
2022/07/24 09:19:10;;;;;;;5.05;3.90;;;;;;;24.22;50.82;99224.75;5052663;28;20025;-78
2022/07/24 09:21:38;;;;;;;4.43;3.45;;;;;;;24.43;50.88;99211.94;5051027;28;20029;-78
2022/07/24 09:24:15;;;;;;;4.20;3.90;;;;;;;24.33;50.55;99224.00;5051440;28;20032;-78
2022/07/24 09:26:45;;;;;;;4.07;3.28;;;;;;;24.68;49.85;99219.16;5081355;28;20488;-78
2022/07/24 09:29:12;;;;;;;3.95;3.58;;;;;;;24.73;49.50;99221.69;5083302;28;20472;-78
2022/07/24 09:32:01;;;;;;;3.90;3.60;;;;;;;24.86;48.67;99219.84;5067682;28;20396;-78
2022/07/24 09:34:29;;;;;;;7.32;3.92;;;;;;;24.46;49.18;99214.00;5053082;28;20542;-78
2022/07/24 09:37:04;;;;;;;6.28;3.95;;;;;;;24.66;48.93;99218.66;5069193;28;20064;-78
2022/07/24 09:39:32;;;;;;;5.55;3.90;;;;;;;24.63;48.15;99202.16;5082944;28;20060;-78
2022/07/24 09:41:59;;;;;;;5.15;3.70;;;;;;;25.14;47.96;99208.03;5071089;28;20032;-78
2022/07/24 09:44:25;;;;;;;6.18;3.60;;;;;;;25.16;48.38;99208.50;5072003;28;20112;-78
2022/07/24 09:47:03;;;;;;;4.40;4.00;;;;;;;25.06;48.67;99194.47;5070170;28;20042;-78
2022/07/24 09:49:29;;;;;;;3.88;3.58;;;;;;;25.37;48.37;99213.13;5069973;28;20372;-78
2022/07/24 09:52:10;;;;;;;3.70;3.40;;;;;;;25.44;47.79;99199.75;5061239;28;20036;-78
2022/07/24 09:54:40;;;;;;;4.63;3.80;;;;;;;25.17;47.88;99196.44;5075554;28;20045;-78
2022/07/24 09:57:23;;;;;;;3.85;3.50;;;;;;;25.44;48.12;99199.75;5051359;28;20024;-78
2022/07/24 09:59:53;;;;;;;3.90;3.35;;;;;;;25.83;47.16;99196.41;5050606;28;20020;-78
2022/07/24 10:02:20;;;;;;;5.43;3.25;;;;;;;25.79;46.58;99188.09;5066858;28;20314;-78
2022/07/24 10:04:47;;;;;;;4.53;3.40;;;;;;;25.91;46.58;99193.59;5067258;28;20271;-78
2022/07/24 10:07:15;;;;;;;4.85;3.35;;;;;;;25.66;47.48;99182.97;5065834;28;20039;-79
2022/07/24 10:09:46;;;;;;;3.92;3.38;;;;;;;25.82;46.19;99186.59;5066775;28;20042;-78
2022/07/24 10:12:15;;;;;;;3.95;3.60;;;;;;;25.77;45.66;99167.72;5069857;28;20023;-78
2022/07/24 10:14:42;;;;;;;6.10;3.65;;;;;;;25.54;44.96;99169.25;5049988;28;20028;-78
2022/07/24 10:17:10;;;;;;;4.97;3.67;;;;;;;26.33;45.45;99175.03;5069417;28;20127;-78
2022/07/24 10:19:47;;;;;;;4.35;3.95;;;;;;;26.37;45.83;99178.66;5037427;28;20056;-78
2022/07/24 10:22:22;;;;;;;4.75;3.55;;;;;;;26.34;45.99;99187.56;5066968;28;20339;-79
2022/07/24 10:24:55;;;;;;;4.97;3.65;;;;;;;26.31;46.25;99187.44;5068545;28;20272;-78
2022/07/24 10:27:34;;;;;;;3.90;3.50;;;;;;;26.53;45.87;99184.22;5081399;28;20033;-78
2022/07/24 10:30:07;;;;;;;4.95;4.55;;;;;;;26.28;45.24;99178.00;5086517;28;20079;-78
2022/07/24 10:32:34;;;;;;;4.57;3.10;;;;;;;26.25;45.59;99173.22;5069931;28;20119;-78
2022/07/24 10:35:17;;;;;;;5.07;3.65;;;;;;;26.88;45.01;99159.88;5071209;28;20039;-78
2022/07/24 10:37:58;;;;;;;4.25;3.83;;;;;;;26.56;43.59;99154.22;5070830;28;20396;-78
2022/07/24 10:40:36;;;;;;;5.82;4.03;;;;;;;26.92;45.41;99158.81;5069152;28;20020;-78
2022/07/24 10:43:04;;;;;;;5.88;3.90;;;;;;;27.18;45.43;99161.91;5067618;28;20032;-78
2022/07/24 10:45:31;;;;;;;4.13;3.83;;;;;;;27.42;44.42;99155.53;5051050;28;20025;-79
2022/07/24 10:47:57;;;;;;;5.90;3.90;;;;;;;27.78;43.92;99141.56;5067740;28;20340;-78
2022/07/24 10:50:23;;;;;;;3.97;3.60;;;;;;;27.65;43.87;99148.31;5067686;28;20032;-79
2022/07/24 10:52:49;;;;;;;5.95;4.18;;;;;;;27.69;43.46;99149.19;5065794;28;20111;-78
2022/07/24 10:55:29;;;;;;;4.30;3.92;;;;;;;27.57;43.46;99148.44;5067746;28;20492;-78
2022/07/24 10:57:57;;;;;;;5.10;4.10;;;;;;;27.60;43.43;99143.06;5068805;28;20047;-78
2022/07/24 11:00:22;;;;;;;3.80;3.42;;;;;;;27.94;42.97;99156.06;5069047;28;20579;-78
2022/07/24 11:03:01;;;;;;;3.88;3.35;;;;;;;28.24;42.95;99152.88;5069829;28;20115;-79
2022/07/24 11:05:31;;;;;;;5.30;3.95;;;;;;;28.18;42.35;99136.66;5071655;28;20432;-79
2022/07/24 11:08:12;;;;;;;6.32;3.88;;;;;;;28.74;42.03;99133.63;5068533;28;20396;-79
2022/07/24 11:10:49;;;;;;;5.20;3.78;;;;;;;28.81;42.08;99129.03;5070771;28;20024;-78
2022/07/24 11:13:32;;;;;;;8.18;4.55;;;;;;;28.58;41.84;99130.91;5070693;28;20024;-78
2022/07/24 11:16:10;;;;;;;4.25;3.58;;;;;;;28.98;41.53;99133.31;5069571;28;20029;-79
2022/07/24 11:18:59;;;;;;;4.47;3.47;;;;;;;29.03;41.53;99113.75;5070639;28;20122;-79
2022/07/24 11:21:29;;;;;;;5.32;3.55;;;;;;;29.26;41.15;99127.59;5070526;28;20442;-79
2022/07/24 11:24:30;;;;;;;4.28;3.88;;;;;;;29.05;41.82;99127.16;5069366;28;20388;-79
2022/07/24 11:26:59;;;;;;;3.95;3.60;;;;;;;29.14;41.47;99138.72;5087985;28;20089;-78
2022/07/24 11:29:30;;;;;;;5.63;3.53;;;;;;;29.34;40.72;99118.28;5072144;28;20033;-78
2022/07/24 11:31:59;;;;;;;4.57;3.33;;;;;;;29.73;40.21;99113.47;5052615;28;20105;-79
2022/07/24 11:34:26;;;;;;;4.05;3.42;;;;;;;30.03;40.26;99117.13;5070599;28;20021;-79
2022/07/24 11:36:54;;;;;;;6.05;3.80;;;;;;;30.36;39.29;99115.28;5068741;28;20055;-79